Time;durP1;ratioP1;P1;durP2;ratioP2;P2;SDS_P1;SDS_P2;PMS_P1;PMS_P2;Temp;Humidity;BMP_temperature;BMP_pressure;BME280_temperature;BME280_humidity;BME280_pressure;Samples;Min_cycle;Max_cycle;Signal;HPM_P1;HPM_P2
2023/06/03 00:00:03;;;;;;;8.30;7.67;;;18.10;16.30;;;;;;4974510;28;20271;-72
2023/06/03 00:02:29;;;;;;;8.47;7.77;;;18.10;16.50;;;;;;4973786;28;20438;-71
2023/06/03 00:04:54;;;;;;;9.87;7.83;;;18.10;16.40;;;;;;4974122;28;20485;-71
2023/06/03 00:07:20;;;;;;;7.93;7.40;;;18.10;16.50;;;;;;4974511;28;20174;-72
2023/06/03 00:09:45;;;;;;;8.70;7.90;;;18.10;17.10;;;;;;4974318;28;20175;-72
2023/06/03 00:12:11;;;;;;;8.93;7.30;;;18.10;16.60;;;;;;4973267;28;20198;-72
2023/06/03 00:14:37;;;;;;;8.77;8.03;;;18.00;16.60;;;;;;4973784;28;20167;-72
2023/06/03 00:17:02;;;;;;;7.70;7.20;;;18.00;16.70;;;;;;4974420;28;20250;-72
2023/06/03 00:19:28;;;;;;;11.27;7.90;;;17.90;17.10;;;;;;4973889;28;20241;-72
2023/06/03 00:21:54;;;;;;;8.53;7.70;;;17.90;17.30;;;;;;4973238;28;20547;-72
2023/06/03 00:24:22;;;;;;;9.37;7.93;;;17.90;17.10;;;;;;4974058;28;20245;-72
2023/06/03 00:26:51;;;;;;;9.00;8.27;;;17.90;17.30;;;;;;4973391;28;20669;-72
2023/06/03 00:29:19;;;;;;;8.70;8.00;;;17.90;17.20;;;;;;4974186;28;20876;-72
2023/06/03 00:31:45;;;;;;;7.90;7.30;;;17.90;17.20;;;;;;4974678;28;20521;-71
2023/06/03 00:34:10;;;;;;;9.63;7.50;;;17.90;17.40;;;;;;4974788;28;20521;-72
2023/06/03 00:36:36;;;;;;;8.03;7.43;;;17.80;17.40;;;;;;4974370;28;20183;-72
2023/06/03 00:39:02;;;;;;;8.57;7.70;;;17.80;17.40;;;;;;4972461;28;20570;-71
2023/06/03 00:41:27;;;;;;;8.37;7.57;;;17.80;17.30;;;;;;4972960;28;20685;-71
2023/06/03 00:43:53;;;;;;;8.33;7.50;;;17.80;17.40;;;;;;4973519;28;20222;-72
2023/06/03 00:46:19;;;;;;;8.07;7.47;;;17.80;17.40;;;;;;4973091;28;20171;-71
2023/06/03 00:48:45;;;;;;;8.67;7.87;;;17.80;17.50;;;;;;4973238;28;20186;-72
2023/06/03 00:51:11;;;;;;;8.37;7.57;;;17.70;17.50;;;;;;4972596;28;20437;-71
2023/06/03 00:53:37;;;;;;;9.00;6.73;;;17.80;17.60;;;;;;4973183;28;20440;-72
2023/06/03 00:56:04;;;;;;;7.83;7.10;;;17.80;17.40;;;;;;4972385;28;20414;-72
2023/06/03 00:58:30;;;;;;;8.23;7.53;;;17.80;17.50;;;;;;4973374;28;20851;-72
2023/06/03 01:00:55;;;;;;;8.37;6.50;;;17.70;17.50;;;;;;4973132;28;20493;-72
2023/06/03 01:03:21;;;;;;;8.63;7.73;;;17.80;17.90;;;;;;4972546;28;20577;-72
2023/06/03 01:06:01;;;;;;;8.50;7.70;;;17.80;17.80;;;;;;4973284;28;20179;-72
2023/06/03 01:08:33;;;;;;;7.70;7.10;;;17.70;17.80;;;;;;4973023;28;20174;-72
2023/06/03 01:11:09;;;;;;;9.30;7.63;;;17.60;18.20;;;;;;4972070;28;20414;-72
2023/06/03 01:13:53;;;;;;;7.93;7.27;;;17.40;18.40;;;;;;4972678;28;20464;-72
2023/06/03 01:16:22;;;;;;;8.97;8.17;;;17.40;18.40;;;;;;4971823;28;20422;-72
2023/06/03 01:18:48;;;;;;;8.93;7.90;;;17.20;18.90;;;;;;4972507;28;20461;-72
2023/06/03 01:21:16;;;;;;;9.10;7.60;;;17.10;19.70;;;;;;4972257;28;20441;-72
2023/06/03 01:23:43;;;;;;;7.67;7.07;;;17.10;19.40;;;;;;4973105;28;20273;-72
2023/06/03 01:26:11;;;;;;;11.87;7.90;;;17.20;19.00;;;;;;4972503;28;20467;-72
2023/06/03 01:28:37;;;;;;;8.00;7.40;;;17.30;18.80;;;;;;4972861;28;20524;-72
2023/06/03 01:31:05;;;;;;;9.50;8.80;;;17.40;18.80;;;;;;4988315;28;20429;-72
2023/06/03 01:33:32;;;;;;;9.37;8.00;;;17.20;19.20;;;;;;4990185;28;20456;-73
2023/06/03 01:36:03;;;;;;;9.43;7.13;;;17.20;19.30;;;;;;4991940;28;20436;-72
2023/06/03 01:38:29;;;;;;;10.67;7.43;;;17.10;19.30;;;;;;4991183;28;20469;-73
2023/06/03 01:40:55;;;;;;;7.47;6.97;;;17.10;19.70;;;;;;4991498;28;20429;-72
2023/06/03 01:43:20;;;;;;;8.40;7.60;;;17.10;19.40;;;;;;4990485;28;20579;-72
2023/06/03 01:45:46;;;;;;;8.57;7.70;;;17.00;19.70;;;;;;4992211;28;20489;-72
2023/06/03 01:48:12;;;;;;;7.60;7.10;;;17.00;19.70;;;;;;4990200;28;20181;-72
2023/06/03 01:50:41;;;;;;;8.63;7.87;;;17.00;19.70;;;;;;4989668;28;20186;-73
2023/06/03 01:53:07;;;;;;;8.47;7.47;;;17.00;19.70;;;;;;4990133;28;20676;-72
2023/06/03 01:55:33;;;;;;;9.03;8.13;;;17.20;19.80;;;;;;4991658;28;20425;-72
2023/06/03 01:57:59;;;;;;;8.20;7.50;;;17.30;19.50;;;;;;4990537;28;20469;-72
2023/06/03 02:00:24;;;;;;;8.80;8.00;;;17.30;19.20;;;;;;4991325;28;20193;-72
2023/06/03 02:02:50;;;;;;;8.33;7.60;;;17.30;19.20;;;;;;4988355;28;20201;-72
2023/06/03 02:05:15;;;;;;;9.50;8.00;;;17.30;18.90;;;;;;4993673;28;20193;-72
2023/06/03 02:07:41;;;;;;;8.10;7.50;;;17.40;19.00;;;;;;4995315;28;20205;-72
2023/06/03 02:10:06;;;;;;;11.67;8.20;;;17.40;18.90;;;;;;4993624;28;20182;-72
2023/06/03 02:12:32;;;;;;;8.63;7.93;;;17.40;18.90;;;;;;4993895;28;20224;-72
2023/06/03 02:14:58;;;;;;;8.60;7.90;;;17.30;19.20;;;;;;4993667;28;20240;-72
2023/06/03 02:17:24;;;;;;;9.17;8.30;;;17.40;19.40;;;;;;4993709;28;20433;-72
2023/06/03 02:19:51;;;;;;;9.27;8.37;;;17.40;19.20;;;;;;4991448;28;20185;-72
2023/06/03 02:22:17;;;;;;;9.17;8.27;;;17.30;19.20;;;;;;4992740;28;20433;-72
2023/06/03 02:24:43;;;;;;;8.90;8.20;;;17.40;19.20;;;;;;4993698;28;20443;-72
2023/06/03 02:27:09;;;;;;;10.93;7.17;;;17.30;19.20;;;;;;4993655;28;20417;-72
2023/06/03 02:29:34;;;;;;;8.20;7.40;;;17.30;19.30;;;;;;4993734;28;20427;-72
2023/06/03 02:32:02;;;;;;;9.83;8.43;;;17.30;19.20;;;;;;4992910;28;20605;-72
2023/06/03 02:34:27;;;;;;;8.57;7.87;;;17.30;19.40;;;;;;4992716;28;20206;-72
2023/06/03 02:36:53;;;;;;;9.00;8.10;;;17.30;19.40;;;;;;4992981;28;20463;-72
2023/06/03 02:39:20;;;;;;;9.40;8.40;;;17.30;19.40;;;;;;4995013;28;20300;-73
2023/06/03 02:41:46;;;;;;;8.43;7.83;;;17.30;19.30;;;;;;4993678;28;20695;-72
2023/06/03 02:44:13;;;;;;;10.10;7.80;;;17.30;19.30;;;;;;4993855;28;20939;-72
2023/06/03 02:46:38;;;;;;;9.20;7.43;;;17.30;19.40;;;;;;4994954;28;20417;-72
2023/06/03 02:49:06;;;;;;;8.23;7.63;;;17.20;19.30;;;;;;4995071;28;20504;-73
2023/06/03 02:51:32;;;;;;;8.83;8.13;;;17.30;19.90;;;;;;4991542;28;20186;-72
2023/06/03 02:53:58;;;;;;;8.53;7.93;;;17.20;19.50;;;;;;4994924;28;20804;-72
2023/06/03 02:56:23;;;;;;;10.23;7.73;;;17.30;19.70;;;;;;4994552;28;20503;-71
2023/06/03 02:58:50;;;;;;;7.40;6.90;;;17.20;19.40;;;;;;4994026;28;20209;-72
2023/06/03 03:01:16;;;;;;;9.03;7.70;;;17.20;19.50;;;;;;5007738;28;20193;-72
2023/06/03 03:03:41;;;;;;;9.13;7.73;;;17.20;19.50;;;;;;4994293;28;20441;-73
2023/06/03 03:06:08;;;;;;;12.00;8.47;;;17.20;19.50;;;;;;4994163;28;20440;-72
2023/06/03 03:08:33;;;;;;;10.60;7.77;;;17.20;19.80;;;;;;4994238;28;20174;-73
2023/06/03 03:10:59;;;;;;;9.70;8.00;;;17.20;19.80;;;;;;4994509;28;20425;-73
2023/06/03 03:13:25;;;;;;;8.57;7.77;;;17.20;19.80;;;;;;4993966;28;20328;-72
2023/06/03 03:15:50;;;;;;;8.20;7.50;;;17.20;19.80;;;;;;4993863;28;20424;-72
2023/06/03 03:18:16;;;;;;;8.87;8.10;;;17.10;19.70;;;;;;4994775;28;20210;-73
2023/06/03 03:20:42;;;;;;;10.60;7.80;;;17.10;19.70;;;;;;4994577;28;20182;-72
2023/06/03 03:23:08;;;;;;;11.67;8.00;;;17.10;19.70;;;;;;4992803;28;20201;-72
2023/06/03 03:25:34;;;;;;;10.70;8.23;;;17.10;19.70;;;;;;4993241;28;20218;-72
2023/06/03 03:28:00;;;;;;;9.03;7.73;;;17.00;19.70;;;;;;4993928;28;20421;-72
2023/06/03 03:30:25;;;;;;;9.73;8.93;;;17.00;19.70;;;;;;4994789;28;20903;-72
2023/06/03 03:32:51;;;;;;;8.93;8.00;;;17.00;19.70;;;;;;4993160;28;20341;-71
2023/06/03 03:35:19;;;;;;;8.57;7.87;;;16.90;19.70;;;;;;4993960;28;20170;-71
2023/06/03 03:37:45;;;;;;;8.53;7.70;;;16.80;20.10;;;;;;4994201;28;20229;-72
2023/06/03 03:40:20;;;;;;;9.90;8.10;;;16.80;20.40;;;;;;4994239;28;20413;-71
2023/06/03 03:42:56;;;;;;;8.40;7.80;;;16.80;20.30;;;;;;4992859;28;20515;-72
2023/06/03 03:45:25;;;;;;;8.60;7.90;;;16.80;20.40;;;;;;4993121;28;20412;-72
2023/06/03 03:47:52;;;;;;;8.23;7.20;;;16.80;20.30;;;;;;4991396;28;20409;-72
2023/06/03 03:50:40;;;;;;;10.43;8.00;;;16.80;20.20;;;;;;4993050;28;20424;-72
2023/06/03 03:53:09;;;;;;;11.87;7.60;;;16.70;20.20;;;;;;4992685;28;20449;-71
2023/06/03 03:55:42;;;;;;;7.30;6.70;;;16.70;20.80;;;;;;4989572;28;20452;-72
2023/06/03 03:58:42;;;;;;;8.07;7.57;;;16.60;20.80;;;;;;4992769;28;20449;-72
2023/06/03 04:01:23;;;;;;;8.43;7.63;;;16.60;20.90;;;;;;4992868;28;20441;-72
2023/06/03 04:03:54;;;;;;;7.90;7.40;;;16.60;21.00;;;;;;4990919;28;20441;-72
2023/06/03 04:06:27;;;;;;;8.30;7.70;;;16.60;20.90;;;;;;4991050;28;20757;-72
2023/06/03 04:08:54;;;;;;;9.33;8.23;;;16.70;20.90;;;;;;4993395;28;20432;-72
2023/06/03 04:11:36;;;;;;;7.90;7.30;;;16.70;20.90;;;;;;4989289;28;20409;-72
2023/06/03 04:14:03;;;;;;;8.17;7.40;;;16.70;20.80;;;;;;4991663;28;21015;-72
2023/06/03 04:16:44;;;;;;;8.03;7.53;;;16.70;21.00;;;;;;4992129;28;20413;-72
2023/06/03 04:19:16;;;;;;;8.00;7.30;;;16.70;21.00;;;;;;4990905;28;21057;-71
2023/06/03 04:21:41;;;;;;;9.47;8.53;;;16.60;20.90;;;;;;4991311;28;20415;-72
2023/06/03 04:24:08;;;;;;;8.50;7.67;;;16.60;21.20;;;;;;4993097;28;20946;-72
2023/06/03 04:26:34;;;;;;;8.43;7.60;;;16.60;21.20;;;;;;4991043;28;20405;-72
2023/06/03 04:29:00;;;;;;;9.17;8.50;;;16.60;21.10;;;;;;4992984;28;20420;-71
2023/06/03 04:31:25;;;;;;;9.37;8.40;;;16.60;21.20;;;;;;4991465;28;20448;-71
2023/06/03 04:33:51;;;;;;;9.10;8.20;;;16.50;21.50;;;;;;4992989;28;20989;-72
2023/06/03 04:36:16;;;;;;;13.10;9.10;;;16.50;21.80;;;;;;4992879;28;20189;-72
2023/06/03 04:38:43;;;;;;;9.00;8.40;;;16.50;21.50;;;;;;4991970;28;20205;-72
2023/06/03 04:41:11;;;;;;;8.93;8.10;;;16.50;21.80;;;;;;4992394;28;20163;-71
2023/06/03 04:43:38;;;;;;;9.83;8.47;;;16.50;21.90;;;;;;4991407;28;20438;-72
2023/06/03 04:46:06;;;;;;;8.57;7.73;;;16.50;21.70;;;;;;4986572;28;20417;-72
2023/06/03 04:48:33;;;;;;;10.33;7.87;;;16.50;22.00;;;;;;4990652;28;20444;-71
2023/06/03 04:51:01;;;;;;;9.67;8.57;;;16.50;22.00;;;;;;4991616;28;20452;-72
2023/06/03 04:53:28;;;;;;;8.80;8.00;;;16.60;21.80;;;;;;4992060;28;20456;-72
2023/06/03 04:55:53;;;;;;;8.90;7.90;;;16.50;21.70;;;;;;4990505;28;20417;-72
2023/06/03 04:58:19;;;;;;;8.27;7.57;;;16.60;21.70;;;;;;4990235;28;20487;-73
2023/06/03 05:00:48;;;;;;;11.63;7.50;;;16.60;21.70;;;;;;4991489;28;20236;-72
2023/06/03 05:03:16;;;;;;;9.10;8.20;;;16.70;21.60;;;;;;4990708;28;20471;-72
2023/06/03 05:05:42;;;;;;;8.80;7.00;;;16.60;21.40;;;;;;4992250;28;20424;-72
2023/06/03 05:08:09;;;;;;;9.13;8.00;;;16.70;21.30;;;;;;4991130;28;20532;-72
2023/06/03 05:10:35;;;;;;;12.17;8.47;;;16.50;21.90;;;;;;5004277;28;20418;-72
2023/06/03 05:13:01;;;;;;;8.60;8.00;;;16.40;22.00;;;;;;4991394;28;20464;-71
2023/06/03 05:15:27;;;;;;;8.90;7.97;;;16.50;21.90;;;;;;4991503;28;20261;-71
2023/06/03 05:17:52;;;;;;;8.57;7.83;;;16.50;22.20;;;;;;4992084;28;20877;-71
2023/06/03 05:20:18;;;;;;;8.50;7.80;;;16.50;22.00;;;;;;4991360;28;20170;-71
2023/06/03 05:22:43;;;;;;;9.40;8.70;;;16.60;21.90;;;;;;4989062;28;20202;-72
2023/06/03 05:25:09;;;;;;;8.73;7.80;;;16.60;21.60;;;;;;4990364;28;20590;-72
2023/06/03 05:27:35;;;;;;;10.40;7.90;;;16.70;21.80;;;;;;5006405;28;20216;-73
2023/06/03 05:30:01;;;;;;;11.67;8.00;;;16.70;21.70;;;;;;4992130;28;20452;-72
2023/06/03 05:32:26;;;;;;;8.17;7.27;;;16.70;21.80;;;;;;4989545;28;20260;-73
2023/06/03 05:34:52;;;;;;;9.13;8.27;;;16.70;21.90;;;;;;5007011;28;20492;-72
2023/06/03 05:37:18;;;;;;;8.87;7.93;;;16.70;21.90;;;;;;4991785;28;20185;-72
2023/06/03 05:39:43;;;;;;;9.20;8.40;;;16.70;21.70;;;;;;4990445;28;20282;-72
2023/06/03 05:42:09;;;;;;;8.93;8.13;;;16.70;21.50;;;;;;4988989;28;20174;-72
2023/06/03 05:44:34;;;;;;;9.77;8.87;;;16.80;21.30;;;;;;4990217;28;20208;-72
2023/06/03 05:47:00;;;;;;;10.83;8.90;;;16.60;21.90;;;;;;4991710;28;20177;-71
2023/06/03 05:49:26;;;;;;;13.97;8.07;;;16.50;22.00;;;;;;4991903;28;20185;-71
2023/06/03 05:51:52;;;;;;;10.47;8.57;;;16.50;21.90;;;;;;4990376;28;20184;-71
2023/06/03 05:54:17;;;;;;;9.27;8.40;;;16.60;21.80;;;;;;4991794;28;20892;-71
2023/06/03 05:56:43;;;;;;;9.20;8.23;;;16.70;21.50;;;;;;4987701;28;20186;-71
2023/06/03 05:59:08;;;;;;;9.30;8.50;;;16.60;21.50;;;;;;4989210;28;20691;-71
2023/06/03 06:01:35;;;;;;;8.63;7.80;;;16.70;21.50;;;;;;4991105;28;20170;-71
2023/06/03 06:04:00;;;;;;;9.30;8.50;;;16.70;21.10;;;;;;4990424;28;20194;-71
2023/06/03 06:06:26;;;;;;;8.60;7.80;;;16.70;21.40;;;;;;4973151;28;20414;-71
2023/06/03 06:08:51;;;;;;;9.97;9.00;;;16.70;21.40;;;;;;4985076;28;20428;-71
2023/06/03 06:11:17;;;;;;;10.33;9.40;;;16.70;21.30;;;;;;4988569;28;20182;-72
2023/06/03 06:13:43;;;;;;;12.33;8.10;;;16.80;21.40;;;;;;4991479;28;20210;-71
2023/06/03 06:16:08;;;;;;;13.60;8.80;;;16.70;22.00;;;;;;4989948;28;20228;-71
2023/06/03 06:18:35;;;;;;;9.03;8.20;;;16.80;21.80;;;;;;4988913;28;20449;-71
2023/06/03 06:21:00;;;;;;;10.90;8.80;;;16.80;21.50;;;;;;4990055;28;20174;-71
2023/06/03 06:23:26;;;;;;;12.17;10.63;;;16.80;21.70;;;;;;4989821;28;20520;-71
2023/06/03 06:25:54;;;;;;;13.47;10.67;;;16.80;21.60;;;;;;4989258;28;20236;-71
2023/06/03 06:28:22;;;;;;;10.50;9.40;;;16.80;21.40;;;;;;4989343;28;20281;-71
2023/06/03 06:30:47;;;;;;;9.70;8.90;;;16.90;21.50;;;;;;4990443;28;20459;-71
2023/06/03 06:33:16;;;;;;;9.37;8.57;;;16.90;21.50;;;;;;4990900;28;20523;-70
2023/06/03 06:35:42;;;;;;;8.07;7.47;;;16.80;21.40;;;;;;5005970;28;20240;-70
2023/06/03 06:38:08;;;;;;;10.77;8.30;;;16.90;21.80;;;;;;4990425;28;20560;-70
2023/06/03 06:40:34;;;;;;;12.30;9.60;;;17.00;21.40;;;;;;4989150;28;20867;-70
2023/06/03 06:43:03;;;;;;;9.00;8.30;;;17.10;21.10;;;;;;4991464;28;20216;-71
2023/06/03 06:45:30;;;;;;;9.73;8.70;;;17.20;21.20;;;;;;4990822;28;20435;-70
2023/06/03 06:48:06;;;;;;;12.33;9.30;;;17.20;21.10;;;;;;4991583;28;20420;-70
2023/06/03 06:50:43;;;;;;;10.17;9.03;;;17.30;20.90;;;;;;4992481;28;20859;-70
2023/06/03 06:53:09;;;;;;;9.80;9.00;;;17.30;20.70;;;;;;4994386;28;20429;-73
2023/06/03 06:55:41;;;;;;;10.37;9.40;;;17.40;20.80;;;;;;4995100;28;20485;-70
2023/06/03 06:58:10;;;;;;;10.33;8.83;;;17.50;20.20;;;;;;4995158;28;20201;-70
2023/06/03 07:00:36;;;;;;;9.73;8.90;;;17.50;20.10;;;;;;4995307;28;20411;-70
2023/06/03 07:03:02;;;;;;;10.13;9.10;;;17.70;20.10;;;;;;4994754;28;20429;-70
2023/06/03 07:05:27;;;;;;;11.90;8.83;;;17.70;19.70;;;;;;4997602;28;20833;-70
2023/06/03 07:07:53;;;;;;;8.70;8.10;;;17.70;20.10;;;;;;4995976;28;20175;-70
2023/06/03 07:10:20;;;;;;;8.70;7.97;;;17.60;20.10;;;;;;4995323;28;20665;-71
2023/06/03 07:12:46;;;;;;;10.27;9.47;;;17.70;20.40;;;;;;4994244;28;20213;-72
2023/06/03 07:15:12;;;;;;;9.40;8.33;;;17.80;20.60;;;;;;4994802;28;20631;-71
2023/06/03 07:17:40;;;;;;;8.80;8.10;;;17.80;20.20;;;;;;4993475;28;20500;-71
2023/06/03 07:20:06;;;;;;;8.87;8.07;;;18.00;20.30;;;;;;4993825;28;20174;-71
2023/06/03 07:22:32;;;;;;;9.73;8.83;;;18.10;20.40;;;;;;4991551;28;20434;-72
2023/06/03 07:24:58;;;;;;;8.90;8.20;;;18.00;19.70;;;;;;4994342;28;20417;-71
2023/06/03 07:27:28;;;;;;;8.80;8.00;;;18.10;19.40;;;;;;4993233;28;20496;-71
2023/06/03 07:29:57;;;;;;;10.07;9.30;;;18.10;19.70;;;;;;4994345;28;20617;-71
2023/06/03 07:32:25;;;;;;;10.00;9.00;;;18.20;19.50;;;;;;4993752;28;20433;-71
2023/06/03 07:34:51;;;;;;;9.90;9.10;;;18.30;19.40;;;;;;4994501;28;20441;-75
2023/06/03 07:37:17;;;;;;;11.20;9.27;;;18.30;19.30;;;;;;4994247;28;20896;-71
2023/06/03 07:39:43;;;;;;;9.50;8.70;;;18.40;19.40;;;;;;4994178;28;20241;-71
2023/06/03 07:42:20;;;;;;;9.97;9.23;;;18.40;19.50;;;;;;4992556;28;20475;-71
2023/06/03 07:44:47;;;;;;;9.87;9.00;;;18.40;19.20;;;;;;4994176;28;20256;-71
2023/06/03 07:47:14;;;;;;;9.77;8.97;;;18.40;19.40;;;;;;4994264;28;20409;-71
2023/06/03 07:49:42;;;;;;;10.60;9.80;;;18.40;19.70;;;;;;4992577;28;20466;-71
2023/06/03 07:52:15;;;;;;;10.20;9.40;;;18.60;19.20;;;;;;5007435;28;20440;-70
2023/06/03 07:54:40;;;;;;;9.87;9.23;;;18.60;19.20;;;;;;4992723;28;20405;-70
2023/06/03 07:57:06;;;;;;;10.03;9.30;;;18.60;19.00;;;;;;4991686;28;21096;-70
2023/06/03 07:59:32;;;;;;;9.83;9.23;;;18.50;19.20;;;;;;5007769;28;20213;-70
2023/06/03 08:01:59;;;;;;;10.53;9.60;;;18.50;19.80;;;;;;4991431;28;20189;-71
2023/06/03 08:04:30;;;;;;;10.90;9.80;;;18.60;19.70;;;;;;4993554;28;20409;-70
2023/06/03 08:06:56;;;;;;;10.90;9.90;;;18.80;19.00;;;;;;5008906;28;20507;-71
2023/06/03 08:09:27;;;;;;;11.33;10.33;;;18.90;18.50;;;;;;4992407;28;20449;-71
2023/06/03 08:11:56;;;;;;;10.00;9.23;;;18.80;18.60;;;;;;4990328;28;20825;-70
2023/06/03 08:14:23;;;;;;;9.00;8.40;;;18.80;19.10;;;;;;4991806;28;20452;-71
2023/06/03 08:16:49;;;;;;;11.30;10.37;;;18.80;19.10;;;;;;4991923;28;20421;-72
2023/06/03 08:19:16;;;;;;;10.60;9.90;;;19.00;18.60;;;;;;4992461;28;20468;-71
2023/06/03 08:21:44;;;;;;;11.20;10.20;;;19.00;18.50;;;;;;4990768;28;20421;-72
2023/06/03 08:24:10;;;;;;;11.70;10.90;;;19.10;18.30;;;;;;4992962;28;20433;-72
2023/06/03 08:26:38;;;;;;;11.57;10.37;;;19.10;19.00;;;;;;4993530;28;20467;-71
2023/06/03 08:29:04;;;;;;;11.50;10.60;;;19.10;18.50;;;;;;4993763;28;20170;-71
2023/06/03 08:31:33;;;;;;;12.10;11.00;;;19.10;18.60;;;;;;4993055;28;20421;-72
2023/06/03 08:33:59;;;;;;;12.00;11.20;;;19.20;19.10;;;;;;4993237;28;20198;-73
2023/06/03 08:36:25;;;;;;;11.23;10.43;;;19.10;18.40;;;;;;4992662;28;20421;-71
2023/06/03 08:38:51;;;;;;;11.23;10.43;;;19.10;18.50;;;;;;4993182;28;20576;-71
2023/06/03 08:41:16;;;;;;;11.40;10.60;;;19.10;18.80;;;;;;4993047;28;20212;-71
2023/06/03 08:43:50;;;;;;;11.10;10.30;;;19.20;18.80;;;;;;4993602;28;20560;-72
2023/06/03 08:46:26;;;;;;;11.83;10.73;;;19.30;18.70;;;;;;4993079;28;20274;-72
2023/06/03 08:49:08;;;;;;;12.50;11.70;;;19.50;18.80;;;;;;4991654;28;20425;-74
2023/06/03 08:51:43;;;;;;;12.03;10.97;;;19.50;18.80;;;;;;4992402;28;20951;-72
2023/06/03 08:54:15;;;;;;;11.97;11.07;;;19.80;18.30;;;;;;4992729;28;20472;-74
2023/06/03 08:56:47;;;;;;;14.17;11.77;;;19.90;17.90;;;;;;4991665;28;21045;-73
2023/06/03 08:59:21;;;;;;;11.77;10.97;;;20.00;18.10;;;;;;4992686;28;20453;-72
2023/06/03 09:01:52;;;;;;;11.00;10.20;;;20.10;17.70;;;;;;4990083;28;20409;-73
2023/06/03 09:04:22;;;;;;;11.90;11.07;;;20.00;17.70;;;;;;4991278;28;20531;-73
2023/06/03 09:06:49;;;;;;;10.87;10.17;;;20.20;17.40;;;;;;4992360;28;20412;-72
2023/06/03 09:09:15;;;;;;;10.80;9.97;;;20.40;17.20;;;;;;4992334;28;20456;-73
2023/06/03 09:11:43;;;;;;;11.93;11.00;;;20.40;17.10;;;;;;4991536;28;20432;-73
2023/06/03 09:14:10;;;;;;;12.20;10.97;;;20.50;16.80;;;;;;5007198;28;20453;-73
2023/06/03 09:16:36;;;;;;;11.30;10.10;;;20.60;16.80;;;;;;4993984;28;20424;-74
2023/06/03 09:19:02;;;;;;;11.00;10.20;;;20.80;16.50;;;;;;4992531;28;20496;-74
2023/06/03 09:21:28;;;;;;;10.73;8.90;;;20.80;16.60;;;;;;4991813;28;20492;-74
2023/06/03 09:23:54;;;;;;;11.87;10.70;;;20.90;16.30;;;;;;4992274;28;20961;-74
2023/06/03 09:26:22;;;;;;;10.83;10.03;;;21.00;16.10;;;;;;4993364;28;20417;-73
2023/06/03 09:28:48;;;;;;;10.03;9.33;;;21.10;16.10;;;;;;4997294;28;20859;-73
2023/06/03 09:31:14;;;;;;;9.47;8.87;;;21.10;16.60;;;;;;4990609;28;20444;-73
2023/06/03 09:33:41;;;;;;;9.97;9.27;;;21.10;16.40;;;;;;4992227;28;20256;-73
2023/06/03 09:36:15;;;;;;;12.70;9.53;;;21.10;16.50;;;;;;4992041;28;20185;-74
2023/06/03 09:38:47;;;;;;;10.33;9.60;;;21.00;16.20;;;;;;4988216;28;20488;-73
2023/06/03 09:41:21;;;;;;;10.27;9.10;;;21.10;16.30;;;;;;4989007;28;20463;-73
2023/06/03 09:44:01;;;;;;;22.37;9.30;;;21.20;16.20;;;;;;4992139;28;20436;-72
2023/06/03 09:46:29;;;;;;;10.40;9.67;;;21.40;16.00;;;;;;4991559;28;20435;-72
2023/06/03 09:49:12;;;;;;;10.07;9.33;;;21.60;15.70;;;;;;4990324;28;20479;-72
2023/06/03 09:51:49;;;;;;;9.77;8.87;;;22.10;14.70;;;;;;4979798;28;20801;-71
2023/06/03 09:54:23;;;;;;;10.83;10.13;;;22.30;14.60;;;;;;5004272;28;20479;-72
2023/06/03 09:56:49;;;;;;;10.50;9.70;;;22.60;14.30;;;;;;4989590;28;20444;-71
2023/06/03 09:59:25;;;;;;;10.30;9.50;;;22.90;14.10;;;;;;4989061;28;20485;-72
2023/06/03 10:01:52;;;;;;;10.13;9.43;;;23.20;13.40;;;;;;4989653;28;20413;-72
2023/06/03 10:04:23;;;;;;;10.83;9.70;;;23.40;12.70;;;;;;4989712;28;20488;-72
2023/06/03 10:07:11;;;;;;;9.97;8.97;;;23.60;13.00;;;;;;4990982;28;20492;-72
2023/06/03 10:09:38;;;;;;;10.73;10.03;;;23.70;12.30;;;;;;4992152;28;20810;-72
2023/06/03 10:12:05;;;;;;;10.57;9.87;;;23.80;12.90;;;;;;4990633;28;20436;-73
2023/06/03 10:14:30;;;;;;;16.57;14.43;;;23.90;12.50;;;;;;4991321;28;20421;-73
2023/06/03 10:17:03;;;;;;;10.63;9.83;;;24.10;12.30;;;;;;4991244;28;20433;-72
2023/06/03 10:19:31;;;;;;;9.83;9.23;;;24.10;11.50;;;;;;4991582;28;20671;-73
2023/06/03 10:21:56;;;;;;;10.70;9.70;;;24.30;11.90;;;;;;4990724;28;20454;-72
2023/06/03 10:24:24;;;;;;;9.33;8.63;;;24.20;11.50;;;;;;4991630;28;20501;-72
2023/06/03 10:26:50;;;;;;;10.43;9.83;;;24.20;11.80;;;;;;4995197;28;20289;-72
2023/06/03 10:29:16;;;;;;;10.57;9.60;;;24.30;11.60;;;;;;4995357;28;20460;-73
2023/06/03 10:31:45;;;;;;;9.80;8.80;;;24.40;11.80;;;;;;4995179;28;20543;-72
2023/06/03 10:34:15;;;;;;;10.77;10.07;;;24.30;11.90;;;;;;4995217;28;20583;-73
2023/06/03 10:36:48;;;;;;;10.33;9.43;;;24.20;11.50;;;;;;4994259;28;20511;-73
2023/06/03 10:39:14;;;;;;;15.43;9.60;;;24.30;11.80;;;;;;4995148;28;20483;-72
2023/06/03 10:41:42;;;;;;;9.87;9.00;;;24.30;11.60;;;;;;4994729;28;20409;-72
2023/06/03 10:44:08;;;;;;;9.97;9.27;;;24.40;11.80;;;;;;4995281;28;20638;-73
2023/06/03 10:46:36;;;;;;;10.63;9.40;;;24.50;11.80;;;;;;4995102;28;20500;-73
2023/06/03 10:49:04;;;;;;;10.50;9.60;;;24.50;11.70;;;;;;4994939;28;20189;-72
2023/06/03 10:52:01;;;;;;;9.13;8.43;;;24.50;11.40;;;;;;4994390;28;20891;-72
2023/06/03 10:54:49;;;;;;;10.80;9.67;;;24.50;11.40;;;;;;4995539;28;20417;-73
2023/06/03 10:57:18;;;;;;;9.37;8.67;;;24.50;11.50;;;;;;4993438;28;20562;-73
2023/06/03 10:59:46;;;;;;;11.83;10.17;;;24.40;11.70;;;;;;5007559;28;20468;-73
2023/06/03 11:02:13;;;;;;;9.67;8.80;;;24.40;11.70;;;;;;4985318;28;20425;-72
2023/06/03 11:04:39;;;;;;;9.80;9.03;;;24.40;11.70;;;;;;4987443;28;20783;-73
2023/06/03 11:07:06;;;;;;;10.10;9.27;;;24.30;12.10;;;;;;4992143;28;20429;-72
2023/06/03 11:09:37;;;;;;;10.23;9.43;;;24.20;12.20;;;;;;4993908;28;20934;-72
2023/06/03 11:12:13;;;;;;;11.53;10.10;;;24.30;11.60;;;;;;4993470;28;21017;-72
2023/06/03 11:14:48;;;;;;;9.90;9.20;;;24.30;11.60;;;;;;4994312;28;20463;-72
2023/06/03 11:17:15;;;;;;;9.87;9.07;;;24.30;11.10;;;;;;4986143;28;20436;-72
2023/06/03 11:19:44;;;;;;;10.10;9.10;;;24.40;10.60;;;;;;4993289;28;20468;-72
2023/06/03 11:22:11;;;;;;;9.53;8.93;;;24.30;10.70;;;;;;4990497;28;20432;-71
2023/06/03 11:24:39;;;;;;;10.30;9.60;;;24.20;10.80;;;;;;4993401;28;20429;-72
2023/06/03 11:27:14;;;;;;;9.57;8.83;;;24.20;10.80;;;;;;4990239;28;20437;-72
2023/06/03 11:29:49;;;;;;;12.63;9.57;;;24.40;10.60;;;;;;4992482;28;20436;-71
2023/06/03 11:32:16;;;;;;;9.63;8.97;;;24.50;10.80;;;;;;4993269;28;20408;-72
2023/06/03 11:34:42;;;;;;;10.10;9.30;;;24.40;10.40;;;;;;4993886;28;20413;-71
2023/06/03 11:37:08;;;;;;;10.57;9.57;;;24.60;10.30;;;;;;4992479;28;20540;-72
2023/06/03 11:40:07;;;;;;;10.17;9.33;;;24.70;10.20;;;;;;4993489;28;20794;-72
2023/06/03 11:42:54;;;;;;;10.10;9.40;;;24.50;10.20;;;;;;4988052;28;20267;-72
2023/06/03 11:45:24;;;;;;;9.13;8.43;;;24.30;10.80;;;;;;4988167;28;20425;-72
2023/06/03 11:47:52;;;;;;;10.70;9.90;;;24.30;11.40;;;;;;4988543;28;20424;-72
2023/06/03 11:50:18;;;;;;;10.33;9.57;;;24.50;10.70;;;;;;4991736;28;20461;-72
2023/06/03 11:52:44;;;;;;;9.60;8.70;;;24.50;11.10;;;;;;4991458;28;20445;-72
2023/06/03 11:55:10;;;;;;;9.50;8.80;;;24.50;11.20;;;;;;4992162;28;20448;-72
2023/06/03 11:57:37;;;;;;;10.03;9.43;;;24.60;11.00;;;;;;4992048;28;20425;-72
2023/06/03 12:00:10;;;;;;;10.43;9.83;;;24.80;10.00;;;;;;4991939;28;20201;-72
2023/06/03 12:02:45;;;;;;;10.63;9.37;;;24.90;9.60;;;;;;4988807;28;20941;-72
2023/06/03 12:05:12;;;;;;;10.23;9.50;;;24.90;9.50;;;;;;4991625;28;20459;-73
2023/06/03 12:07:37;;;;;;;10.97;10.13;;;24.80;10.20;;;;;;4993539;28;21101;-72
2023/06/03 12:10:03;;;;;;;9.03;8.47;;;24.60;10.60;;;;;;4993020;28;20528;-72
2023/06/03 12:12:29;;;;;;;8.83;8.33;;;24.50;10.40;;;;;;4992388;28;20297;-73
2023/06/03 12:14:57;;;;;;;9.50;8.90;;;24.50;10.40;;;;;;4993157;28;20421;-72
2023/06/03 12:17:23;;;;;;;9.13;8.40;;;24.50;10.30;;;;;;4993317;28;20173;-73
2023/06/03 12:19:51;;;;;;;10.20;9.60;;;24.50;10.50;;;;;;4993452;28;20460;-73
2023/06/03 12:22:25;;;;;;;11.90;10.17;;;24.40;10.30;;;;;;4991541;28;20879;-70
2023/06/03 12:24:51;;;;;;;10.47;9.77;;;24.40;10.30;;;;;;4988264;28;20512;-72
2023/06/03 12:27:17;;;;;;;10.30;9.40;;;24.40;10.00;;;;;;4992314;28;20475;-72
2023/06/03 12:29:47;;;;;;;10.17;9.50;;;24.40;9.90;;;;;;4987612;28;20433;-72
2023/06/03 12:32:14;;;;;;;9.63;8.93;;;24.40;10.00;;;;;;4986368;28;20198;-74
2023/06/03 12:34:44;;;;;;;10.03;9.33;;;24.30;10.10;;;;;;4990773;28;20950;-72
2023/06/03 12:37:11;;;;;;;10.70;9.60;;;24.20;10.60;;;;;;4992922;28;20413;-71
2023/06/03 12:39:48;;;;;;;9.00;8.40;;;24.10;10.50;;;;;;4993200;28;20548;-73
2023/06/03 12:42:19;;;;;;;9.83;9.13;;;24.00;10.80;;;;;;4992302;28;20421;-72
2023/06/03 12:44:52;;;;;;;10.07;9.17;;;23.90;10.80;;;;;;4992809;28;20428;-72